sensor_id;sensor_type;location;lat;lon;timestamp;pressure;altitude;pressure_sealevel;temperature;humidity
53546;BME280;39432;51.902;10.844;2023-03-23T00:01:51;98408.06;;;13.56;87.98
53546;BME280;39432;51.902;10.844;2023-03-23T00:04:23;98413.16;;;13.49;88.92
53546;BME280;39432;51.902;10.844;2023-03-23T00:06:53;98430.25;;;13.59;88.22
53546;BME280;39432;51.902;10.844;2023-03-23T00:09:23;98432.91;;;13.51;88.51
53546;BME280;39432;51.902;10.844;2023-03-23T00:11:53;98416.72;;;13.49;89.05
53546;BME280;39432;51.902;10.844;2023-03-23T00:14:32;98420.69;;;13.57;88.13
53546;BME280;39432;51.902;10.844;2023-03-23T00:17:08;98420.28;;;13.50;89.13
53546;BME280;39432;51.902;10.844;2023-03-23T00:19:43;98418.47;;;13.59;87.89
53546;BME280;39432;51.902;10.844;2023-03-23T00:22:17;98433.50;;;13.75;85.99
53546;BME280;39432;51.902;10.844;2023-03-23T00:24:48;98430.06;;;13.69;86.03
53546;BME280;39432;51.902;10.844;2023-03-23T00:27:19;98426.78;;;13.67;86.04
53546;BME280;39432;51.902;10.844;2023-03-23T00:29:49;98416.91;;;13.80;85.49
53546;BME280;39432;51.902;10.844;2023-03-23T00:32:21;98413.34;;;13.80;84.45
53546;BME280;39432;51.902;10.844;2023-03-23T00:34:58;98413.34;;;13.66;86.42
53546;BME280;39432;51.902;10.844;2023-03-23T00:37:29;98402.25;;;13.71;87.27
53546;BME280;39432;51.902;10.844;2023-03-23T00:39:59;98414.16;;;13.80;85.86
53546;BME280;39432;51.902;10.844;2023-03-23T00:42:36;98412.13;;;13.72;86.21
53546;BME280;39432;51.902;10.844;2023-03-23T00:45:07;98404.50;;;13.69;87.92
53546;BME280;39432;51.902;10.844;2023-03-23T00:47:39;98399.78;;;13.83;86.97
53546;BME280;39432;51.902;10.844;2023-03-23T00:50:16;98396.31;;;13.78;87.68
53546;BME280;39432;51.902;10.844;2023-03-23T00:52:55;98404.91;;;13.62;88.30
53546;BME280;39432;51.902;10.844;2023-03-23T00:55:26;98395.84;;;13.76;87.17
53546;BME280;39432;51.902;10.844;2023-03-23T00:57:57;98412.53;;;13.65;87.43
53546;BME280;39432;51.902;10.844;2023-03-23T01:00:27;98397.28;;;13.45;89.70
53546;BME280;39432;51.902;10.844;2023-03-23T01:02:57;98400.13;;;13.54;89.78
53546;BME280;39432;51.902;10.844;2023-03-23T01:05:29;98407.25;;;13.69;87.71
53546;BME280;39432;51.902;10.844;2023-03-23T01:07:59;98396.47;;;13.59;88.41
53546;BME280;39432;51.902;10.844;2023-03-23T01:10:30;98395.63;;;13.72;87.33
53546;BME280;39432;51.902;10.844;2023-03-23T01:13:01;98393.16;;;13.84;85.52
53546;BME280;39432;51.902;10.844;2023-03-23T01:15:32;98405.47;;;13.87;86.00
53546;BME280;39432;51.902;10.844;2023-03-23T01:18:03;98405.78;;;13.85;87.55
53546;BME280;39432;51.902;10.844;2023-03-23T01:20:36;98403.03;;;13.85;87.78
53546;BME280;39432;51.902;10.844;2023-03-23T01:23:06;98405.19;;;13.75;88.69
53546;BME280;39432;51.902;10.844;2023-03-23T01:25:36;98415.38;;;13.74;88.85
53546;BME280;39432;51.902;10.844;2023-03-23T01:28:06;98401.53;;;13.79;89.13
53546;BME280;39432;51.902;10.844;2023-03-23T01:30:37;98397.66;;;13.80;89.35
53546;BME280;39432;51.902;10.844;2023-03-23T01:33:07;98390.53;;;13.79;90.17
53546;BME280;39432;51.902;10.844;2023-03-23T01:35:40;98392.38;;;13.70;91.42
53546;BME280;39432;51.902;10.844;2023-03-23T01:38:10;98380.78;;;13.45;93.17
53546;BME280;39432;51.902;10.844;2023-03-23T01:40:40;98391.19;;;13.49;94.54
53546;BME280;39432;51.902;10.844;2023-03-23T01:43:13;98396.88;;;13.38;96.31
53546;BME280;39432;51.902;10.844;2023-03-23T01:45:44;98389.16;;;13.27;98.33
53546;BME280;39432;51.902;10.844;2023-03-23T01:48:17;98403.38;;;13.15;100.00
53546;BME280;39432;51.902;10.844;2023-03-23T01:50:55;98403.28;;;13.20;100.00
53546;BME280;39432;51.902;10.844;2023-03-23T01:53:30;98400.13;;;13.40;100.00
53546;BME280;39432;51.902;10.844;2023-03-23T01:56:03;98385.66;;;13.07;100.00
53546;BME280;39432;51.902;10.844;2023-03-23T01:58:34;98374.28;;;13.14;100.00
53546;BME280;39432;51.902;10.844;2023-03-23T02:01:09;98369.00;;;13.04;100.00
53546;BME280;39432;51.902;10.844;2023-03-23T02:03:43;98365.09;;;12.91;100.00
53546;BME280;39432;51.902;10.844;2023-03-23T02:06:17;98365.13;;;13.05;100.00
53546;BME280;39432;51.902;10.844;2023-03-23T02:09:03;98368.34;;;12.79;100.00
53546;BME280;39432;51.902;10.844;2023-03-23T02:11:36;98376.66;;;12.74;100.00
53546;BME280;39432;51.902;10.844;2023-03-23T02:14:06;98384.00;;;12.79;100.00
53546;BME280;39432;51.902;10.844;2023-03-23T02:16:41;98364.38;;;12.85;100.00
53546;BME280;39432;51.902;10.844;2023-03-23T02:19:33;98369.78;;;12.90;100.00
53546;BME280;39432;51.902;10.844;2023-03-23T02:22:26;98365.94;;;12.91;100.00
53546;BME280;39432;51.902;10.844;2023-03-23T02:28:26;98335.75;;;12.91;100.00
53546;BME280;39432;51.902;10.844;2023-03-23T02:31:18;98342.63;;;12.89;100.00
53546;BME280;39432;51.902;10.844;2023-03-23T02:33:56;98341.19;;;12.64;100.00
53546;BME280;39432;51.902;10.844;2023-03-23T02:36:30;98323.81;;;12.69;100.00
53546;BME280;39432;51.902;10.844;2023-03-23T02:39:08;98337.59;;;12.50;100.00
53546;BME280;39432;51.902;10.844;2023-03-23T02:41:42;98341.28;;;12.59;100.00
53546;BME280;39432;51.902;10.844;2023-03-23T02:44:13;98343.50;;;12.57;100.00
53546;BME280;39432;51.902;10.844;2023-03-23T02:46:44;98336.81;;;12.63;100.00
53546;BME280;39432;51.902;10.844;2023-03-23T02:49:17;98349.44;;;12.64;100.00
53546;BME280;39432;51.902;10.844;2023-03-23T02:51:50;98335.41;;;12.65;100.00
53546;BME280;39432;51.902;10.844;2023-03-23T02:54:22;98330.31;;;12.59;100.00
53546;BME280;39432;51.902;10.844;2023-03-23T02:56:54;98323.56;;;12.51;100.00
53546;BME280;39432;51.902;10.844;2023-03-23T02:59:29;98323.38;;;12.61;100.00
53546;BME280;39432;51.902;10.844;2023-03-23T03:02:03;98322.00;;;12.64;100.00
53546;BME280;39432;51.902;10.844;2023-03-23T03:04:38;98328.06;;;12.61;100.00
53546;BME280;39432;51.902;10.844;2023-03-23T03:07:30;98328.78;;;12.53;100.00
53546;BME280;39432;51.902;10.844;2023-03-23T03:10:07;98342.44;;;12.39;100.00
53546;BME280;39432;51.902;10.844;2023-03-23T03:12:46;98341.88;;;12.56;100.00
53546;BME280;39432;51.902;10.844;2023-03-23T03:15:24;98344.72;;;12.51;100.00
53546;BME280;39432;51.902;10.844;2023-03-23T03:18:00;98337.44;;;12.60;100.00
53546;BME280;39432;51.902;10.844;2023-03-23T03:20:38;98348.34;;;12.46;100.00
53546;BME280;39432;51.902;10.844;2023-03-23T03:23:11;98339.75;;;12.53;100.00
53546;BME280;39432;51.902;10.844;2023-03-23T03:25:45;98341.88;;;12.56;100.00
53546;BME280;39432;51.902;10.844;2023-03-23T03:28:25;98342.81;;;12.65;100.00
53546;BME280;39432;51.902;10.844;2023-03-23T03:30:58;98352.47;;;12.62;100.00
53546;BME280;39432;51.902;10.844;2023-03-23T03:33:31;98350.34;;;12.59;100.00
53546;BME280;39432;51.902;10.844;2023-03-23T03:36:05;98352.44;;;12.49;100.00
53546;BME280;39432;51.902;10.844;2023-03-23T03:38:43;98355.34;;;12.38;100.00
53546;BME280;39432;51.902;10.844;2023-03-23T03:41:15;98347.75;;;12.49;100.00
53546;BME280;39432;51.902;10.844;2023-03-23T03:43:46;98350.47;;;12.35;100.00
53546;BME280;39432;51.902;10.844;2023-03-23T03:46:16;98355.75;;;12.32;100.00
53546;BME280;39432;51.902;10.844;2023-03-23T03:48:45;98353.19;;;12.35;100.00
53546;BME280;39432;51.902;10.844;2023-03-23T03:51:22;98352.63;;;12.38;100.00
53546;BME280;39432;51.902;10.844;2023-03-23T03:53:54;98353.16;;;12.22;100.00
53546;BME280;39432;51.902;10.844;2023-03-23T03:56:24;98349.03;;;12.05;100.00
53546;BME280;39432;51.902;10.844;2023-03-23T03:59:08;98342.84;;;12.32;100.00
53546;BME280;39432;51.902;10.844;2023-03-23T04:02:03;98347.69;;;12.22;100.00
53546;BME280;39432;51.902;10.844;2023-03-23T04:04:33;98357.19;;;12.10;100.00
53546;BME280;39432;51.902;10.844;2023-03-23T04:07:06;98367.13;;;12.06;100.00
53546;BME280;39432;51.902;10.844;2023-03-23T04:09:38;98351.47;;;12.07;100.00
53546;BME280;39432;51.902;10.844;2023-03-23T04:12:10;98357.91;;;12.16;100.00
53546;BME280;39432;51.902;10.844;2023-03-23T04:15:03;98362.97;;;12.09;100.00
53546;BME280;39432;51.902;10.844;2023-03-23T04:17:35;98360.81;;;12.06;100.00
53546;BME280;39432;51.902;10.844;2023-03-23T04:20:09;98362.69;;;12.10;100.00
53546;BME280;39432;51.902;10.844;2023-03-23T04:23:00;98363.25;;;12.07;100.00
53546;BME280;39432;51.902;10.844;2023-03-23T04:25:31;98364.69;;;12.05;100.00
53546;BME280;39432;51.902;10.844;2023-03-23T04:28:04;98372.00;;;12.09;100.00
53546;BME280;39432;51.902;10.844;2023-03-23T04:30:45;98368.09;;;11.97;100.00
53546;BME280;39432;51.902;10.844;2023-03-23T04:33:19;98378.16;;;12.20;100.00
53546;BME280;39432;51.902;10.844;2023-03-23T04:36:11;98375.03;;;12.08;100.00
53546;BME280;39432;51.902;10.844;2023-03-23T04:38:55;98372.16;;;11.99;100.00
53546;BME280;39432;51.902;10.844;2023-03-23T04:41:26;98381.56;;;12.12;100.00
53546;BME280;39432;51.902;10.844;2023-03-23T04:44:12;98373.41;;;12.07;100.00
53546;BME280;39432;51.902;10.844;2023-03-23T04:46:49;98378.09;;;11.88;100.00
53546;BME280;39432;51.902;10.844;2023-03-23T04:49:21;98371.81;;;11.87;100.00
53546;BME280;39432;51.902;10.844;2023-03-23T04:52:00;98378.38;;;12.05;100.00
53546;BME280;39432;51.902;10.844;2023-03-23T04:54:43;98382.16;;;11.90;100.00
53546;BME280;39432;51.902;10.844;2023-03-23T04:57:13;98391.66;;;11.98;100.00
53546;BME280;39432;51.902;10.844;2023-03-23T04:59:58;98391.34;;;11.99;100.00
53546;BME280;39432;51.902;10.844;2023-03-23T05:02:39;98403.97;;;11.81;100.00
53546;BME280;39432;51.902;10.844;2023-03-23T05:05:10;98397.41;;;11.77;100.00
53546;BME280;39432;51.902;10.844;2023-03-23T05:07:41;98405.25;;;11.65;100.00
53546;BME280;39432;51.902;10.844;2023-03-23T05:10:16;98404.06;;;11.71;100.00
53546;BME280;39432;51.902;10.844;2023-03-23T05:12:53;98423.31;;;11.66;100.00
53546;BME280;39432;51.902;10.844;2023-03-23T05:15:23;98421.53;;;11.75;100.00
53546;BME280;39432;51.902;10.844;2023-03-23T05:17:53;98434.25;;;11.66;100.00
53546;BME280;39432;51.902;10.844;2023-03-23T05:20:24;98419.31;;;11.77;100.00
53546;BME280;39432;51.902;10.844;2023-03-23T05:23:09;98402.88;;;11.77;100.00
53546;BME280;39432;51.902;10.844;2023-03-23T05:25:42;98408.25;;;11.88;100.00
53546;BME280;39432;51.902;10.844;2023-03-23T05:28:17;98402.88;;;11.77;100.00
53546;BME280;39432;51.902;10.844;2023-03-23T05:30:53;98383.66;;;11.58;100.00
53546;BME280;39432;51.902;10.844;2023-03-23T05:33:28;98387.53;;;11.57;100.00
53546;BME280;39432;51.902;10.844;2023-03-23T05:36:03;98370.19;;;11.81;100.00
53546;BME280;39432;51.902;10.844;2023-03-23T05:38:46;98374.69;;;11.96;100.00
53546;BME280;39432;51.902;10.844;2023-03-23T05:41:19;98370.47;;;11.84;100.00
53546;BME280;39432;51.902;10.844;2023-03-23T05:43:50;98376.78;;;11.61;100.00
53546;BME280;39432;51.902;10.844;2023-03-23T05:46:27;98378.50;;;11.57;100.00
53546;BME280;39432;51.902;10.844;2023-03-23T05:48:59;98351.47;;;12.07;100.00
53546;BME280;39432;51.902;10.844;2023-03-23T05:51:36;98331.03;;;11.80;100.00
53546;BME280;39432;51.902;10.844;2023-03-23T05:54:13;98336.69;;;11.70;100.00
53546;BME280;39432;51.902;10.844;2023-03-23T05:56:47;98321.94;;;11.85;100.00
53546;BME280;39432;51.902;10.844;2023-03-23T05:59:40;98281.56;;;11.53;100.00
53546;BME280;39432;51.902;10.844;2023-03-23T06:02:15;98289.41;;;11.78;100.00
53546;BME280;39432;51.902;10.844;2023-03-23T06:04:45;98264.44;;;11.80;100.00
53546;BME280;39432;51.902;10.844;2023-03-23T06:07:22;98266.63;;;11.64;100.00
53546;BME280;39432;51.902;10.844;2023-03-23T06:09:58;98253.38;;;11.52;100.00
53546;BME280;39432;51.902;10.844;2023-03-23T06:12:39;98247.97;;;11.66;100.00
53546;BME280;39432;51.902;10.844;2023-03-23T06:15:26;98284.84;;;11.55;100.00
53546;BME280;39432;51.902;10.844;2023-03-23T06:18:16;98305.41;;;11.33;100.00
53546;BME280;39432;51.902;10.844;2023-03-23T06:21:03;98321.72;;;11.44;100.00
53546;BME280;39432;51.902;10.844;2023-03-23T06:24:06;98342.50;;;11.45;100.00
53546;BME280;39432;51.902;10.844;2023-03-23T06:26:38;98357.00;;;11.45;100.00
53546;BME280;39432;51.902;10.844;2023-03-23T06:29:19;98357.69;;;11.75;100.00
53546;BME280;39432;51.902;10.844;2023-03-23T06:31:55;98364.28;;;11.55;100.00
53546;BME280;39432;51.902;10.844;2023-03-23T06:34:27;98378.91;;;11.45;100.00
53546;BME280;39432;51.902;10.844;2023-03-23T06:37:20;98381.22;;;11.57;100.00
53546;BME280;39432;51.902;10.844;2023-03-23T06:40:28;98381.84;;;11.73;100.00
53546;BME280;39432;51.902;10.844;2023-03-23T06:42:58;98364.50;;;11.77;100.00
53546;BME280;39432;51.902;10.844;2023-03-23T06:45:47;98355.91;;;12.03;100.00
53546;BME280;39432;51.902;10.844;2023-03-23T06:48:50;98340.50;;;11.69;100.00
53546;BME280;39432;51.902;10.844;2023-03-23T06:51:27;98346.06;;;11.64;100.00
53546;BME280;39432;51.902;10.844;2023-03-23T06:53:56;98337.84;;;11.64;100.00
53546;BME280;39432;51.902;10.844;2023-03-23T06:56:30;98332.91;;;11.66;100.00
53546;BME280;39432;51.902;10.844;2023-03-23T06:59:01;98334.22;;;11.69;100.00
53546;BME280;39432;51.902;10.844;2023-03-23T07:01:34;98333.53;;;11.82;100.00
53546;BME280;39432;51.902;10.844;2023-03-23T07:04:05;98313.34;;;11.73;100.00
53546;BME280;39432;51.902;10.844;2023-03-23T07:06:47;98315.19;;;11.96;100.00
53546;BME280;39432;51.902;10.844;2023-03-23T07:09:17;98311.72;;;11.91;100.00
53546;BME280;39432;51.902;10.844;2023-03-23T07:11:56;98325.41;;;11.91;100.00
53546;BME280;39432;51.902;10.844;2023-03-23T07:14:34;98335.56;;;11.90;100.00
53546;BME280;39432;51.902;10.844;2023-03-23T07:17:06;98352.44;;;11.97;100.00
53546;BME280;39432;51.902;10.844;2023-03-23T07:19:41;98363.31;;;12.21;100.00
53546;BME280;39432;51.902;10.844;2023-03-23T07:22:13;98369.00;;;12.25;100.00
53546;BME280;39432;51.902;10.844;2023-03-23T07:24:49;98365.34;;;12.16;100.00
53546;BME280;39432;51.902;10.844;2023-03-23T07:27:24;98368.03;;;12.34;100.00
53546;BME280;39432;51.902;10.844;2023-03-23T07:29:57;98379.00;;;12.34;100.00
53546;BME280;39432;51.902;10.844;2023-03-23T07:32:30;98381.97;;;12.38;100.00
53546;BME280;39432;51.902;10.844;2023-03-23T07:34:59;98388.59;;;12.51;100.00
53546;BME280;39432;51.902;10.844;2023-03-23T07:37:41;98370.97;;;12.71;100.00
53546;BME280;39432;51.902;10.844;2023-03-23T07:40:13;98377.78;;;12.73;100.00
53546;BME280;39432;51.902;10.844;2023-03-23T07:42:52;98384.75;;;12.52;100.00
53546;BME280;39432;51.902;10.844;2023-03-23T07:45:48;98393.91;;;12.47;100.00
53546;BME280;39432;51.902;10.844;2023-03-23T07:48:22;98400.38;;;12.37;100.00
53546;BME280;39432;51.902;10.844;2023-03-23T07:50:52;98399.97;;;12.44;100.00
53546;BME280;39432;51.902;10.844;2023-03-23T07:53:22;98400.53;;;12.27;100.00
53546;BME280;39432;51.902;10.844;2023-03-23T07:56:07;98402.28;;;12.37;100.00
53546;BME280;39432;51.902;10.844;2023-03-23T07:58:51;98409.09;;;12.39;100.00
53546;BME280;39432;51.902;10.844;2023-03-23T08:01:21;98400.19;;;12.48;100.00
53546;BME280;39432;51.902;10.844;2023-03-23T08:04:19;98401.19;;;12.52;100.00
53546;BME280;39432;51.902;10.844;2023-03-23T08:07:07;98414.81;;;12.43;100.00
53546;BME280;39432;51.902;10.844;2023-03-23T08:09:51;98415.88;;;12.61;100.00
53546;BME280;39432;51.902;10.844;2023-03-23T08:12:36;98406.09;;;12.55;100.00
53546;BME280;39432;51.902;10.844;2023-03-23T08:15:25;98399.88;;;12.96;100.00
53546;BME280;39432;51.902;10.844;2023-03-23T08:18:13;98400.50;;;12.92;100.00
53546;BME280;39432;51.902;10.844;2023-03-23T08:21:06;98406.00;;;13.06;100.00
53546;BME280;39432;51.902;10.844;2023-03-23T08:24:00;98406.41;;;13.00;100.00
53546;BME280;39432;51.902;10.844;2023-03-23T08:26:51;98401.09;;;12.89;100.00
53546;BME280;39432;51.902;10.844;2023-03-23T08:29:43;98393.38;;;12.91;100.00
53546;BME280;39432;51.902;10.844;2023-03-23T08:32:31;98392.72;;;13.41;100.00
53546;BME280;39432;51.902;10.844;2023-03-23T08:35:17;98390.78;;;13.28;100.00
53546;BME280;39432;51.902;10.844;2023-03-23T08:38:14;98390.78;;;13.41;100.00
53546;BME280;39432;51.902;10.844;2023-03-23T08:41:06;98395.84;;;13.62;100.00
53546;BME280;39432;51.902;10.844;2023-03-23T08:43:56;98395.75;;;13.53;100.00
53546;BME280;39432;51.902;10.844;2023-03-23T08:46:44;98389.75;;;13.37;100.00
53546;BME280;39432;51.902;10.844;2023-03-23T08:49:49;98410.00;;;13.55;100.00
53546;BME280;39432;51.902;10.844;2023-03-23T08:52:46;98410.72;;;13.61;100.00
53546;BME280;39432;51.902;10.844;2023-03-23T08:55:44;98414.06;;;13.71;100.00
53546;BME280;39432;51.902;10.844;2023-03-23T08:58:27;98415.78;;;13.67;100.00
53546;BME280;39432;51.902;10.844;2023-03-23T09:00:57;98406.72;;;13.81;100.00
53546;BME280;39432;51.902;10.844;2023-03-23T09:03:52;98405.78;;;13.85;100.00
53546;BME280;39432;51.902;10.844;2023-03-23T09:06:32;98403.16;;;13.80;100.00
53546;BME280;39432;51.902;10.844;2023-03-23T09:09:03;98407.41;;;13.86;100.00
53546;BME280;39432;51.902;10.844;2023-03-23T09:11:36;98400.53;;;13.75;100.00
53546;BME280;39432;51.902;10.844;2023-03-23T09:14:07;98386.19;;;14.01;100.00
53546;BME280;39432;51.902;10.844;2023-03-23T09:16:37;98391.19;;;13.98;100.00
53546;BME280;39432;51.902;10.844;2023-03-23T09:19:07;98387.97;;;14.19;100.00
53546;BME280;39432;51.902;10.844;2023-03-23T09:21:39;98386.31;;;13.95;100.00
53546;BME280;39432;51.902;10.844;2023-03-23T09:24:09;98381.53;;;14.23;100.00
53546;BME280;39432;51.902;10.844;2023-03-23T09:26:41;98388.41;;;14.12;100.00
53546;BME280;39432;51.902;10.844;2023-03-23T09:29:11;98388.91;;;14.37;100.00
53546;BME280;39432;51.902;10.844;2023-03-23T09:31:40;98380.22;;;14.21;100.00
53546;BME280;39432;51.902;10.844;2023-03-23T09:34:13;98384.84;;;14.34;100.00
53546;BME280;39432;51.902;10.844;2023-03-23T09:36:44;98389.69;;;14.51;100.00
53546;BME280;39432;51.902;10.844;2023-03-23T09:39:15;98382.66;;;14.45;100.00
53546;BME280;39432;51.902;10.844;2023-03-23T09:42:16;98387.47;;;14.39;100.00
53546;BME280;39432;51.902;10.844;2023-03-23T09:44:58;98389.34;;;14.30;100.00
53546;BME280;39432;51.902;10.844;2023-03-23T09:47:37;98396.34;;;14.36;100.00
53546;BME280;39432;51.902;10.844;2023-03-23T09:50:14;98390.97;;;14.31;100.00
53546;BME280;39432;51.902;10.844;2023-03-23T09:52:48;98393.31;;;14.60;100.00
53546;BME280;39432;51.902;10.844;2023-03-23T09:55:21;98404.03;;;14.62;100.00
53546;BME280;39432;51.902;10.844;2023-03-23T09:57:57;98400.13;;;14.63;100.00
53546;BME280;39432;51.902;10.844;2023-03-23T10:00:33;98404.66;;;14.90;99.97
53546;BME280;39432;51.902;10.844;2023-03-23T10:03:12;98409.25;;;14.49;98.65
53546;BME280;39432;51.902;10.844;2023-03-23T10:05:45;98400.38;;;14.53;98.78
53546;BME280;39432;51.902;10.844;2023-03-23T10:08:18;98400.34;;;14.30;98.17
53546;BME280;39432;51.902;10.844;2023-03-23T10:10:57;98410.47;;;14.43;97.96
53546;BME280;39432;51.902;10.844;2023-03-23T10:13:48;98403.00;;;14.35;97.82
53546;BME280;39432;51.902;10.844;2023-03-23T10:16:25;98402.75;;;14.45;96.17
53546;BME280;39432;51.902;10.844;2023-03-23T10:19:02;98408.94;;;14.73;95.73
53546;BME280;39432;51.902;10.844;2023-03-23T10:21:37;98404.31;;;14.60;96.05
53546;BME280;39432;51.902;10.844;2023-03-23T10:24:09;98401.88;;;14.59;96.66
53546;BME280;39432;51.902;10.844;2023-03-23T10:26:47;98407.31;;;14.50;99.50
53546;BME280;39432;51.902;10.844;2023-03-23T10:29:22;98385.00;;;14.52;96.10
53546;BME280;39432;51.902;10.844;2023-03-23T10:31:58;98394.59;;;14.40;93.48
53546;BME280;39432;51.902;10.844;2023-03-23T10:34:32;98391.53;;;14.42;93.46
53546;BME280;39432;51.902;10.844;2023-03-23T10:37:10;98390.09;;;14.44;95.52
53546;BME280;39432;51.902;10.844;2023-03-23T10:39:46;98385.22;;;14.41;95.00
53546;BME280;39432;51.902;10.844;2023-03-23T10:42:23;98392.50;;;14.60;95.66
53546;BME280;39432;51.902;10.844;2023-03-23T10:45:00;98379.59;;;14.46;93.95
53546;BME280;39432;51.902;10.844;2023-03-23T10:47:31;98384.41;;;14.41;93.79
53546;BME280;39432;51.902;10.844;2023-03-23T10:50:04;98386.13;;;14.51;95.88
53546;BME280;39432;51.902;10.844;2023-03-23T10:52:36;98385.84;;;14.38;95.85
53546;BME280;39432;51.902;10.844;2023-03-23T10:55:08;98376.28;;;14.58;94.42
53546;BME280;39432;51.902;10.844;2023-03-23T10:57:39;98385.03;;;14.60;96.46
53546;BME280;39432;51.902;10.844;2023-03-23T11:00:20;98384.47;;;14.49;94.32
53546;BME280;39432;51.902;10.844;2023-03-23T11:02:59;98396.00;;;14.52;96.76
53546;BME280;39432;51.902;10.844;2023-03-23T11:05:36;98389.13;;;14.63;98.52
53546;BME280;39432;51.902;10.844;2023-03-23T11:08:11;98383.44;;;14.59;97.07
53546;BME280;39432;51.902;10.844;2023-03-23T11:10:50;98374.19;;;14.86;98.57
53546;BME280;39432;51.902;10.844;2023-03-23T11:13:21;98412.19;;;14.75;97.38
53546;BME280;39432;51.902;10.844;2023-03-23T11:15:54;98420.41;;;14.67;96.82
53546;BME280;39432;51.902;10.844;2023-03-23T11:18:26;98416.75;;;14.80;93.46
53546;BME280;39432;51.902;10.844;2023-03-23T11:20:58;98418.44;;;14.90;93.75
53546;BME280;39432;51.902;10.844;2023-03-23T11:23:29;98425.53;;;14.60;94.09
53546;BME280;39432;51.902;10.844;2023-03-23T11:26:03;98424.75;;;14.45;91.62
53546;BME280;39432;51.902;10.844;2023-03-23T11:28:35;98430.47;;;14.71;91.09
53546;BME280;39432;51.902;10.844;2023-03-23T11:31:09;98434.66;;;14.69;89.88
53546;BME280;39432;51.902;10.844;2023-03-23T11:33:46;98420.88;;;14.91;91.05
53546;BME280;39432;51.902;10.844;2023-03-23T11:36:33;98408.50;;;14.80;91.44
53546;BME280;39432;51.902;10.844;2023-03-23T11:39:19;98408.25;;;14.99;91.00
53546;BME280;39432;51.902;10.844;2023-03-23T11:41:49;98424.25;;;14.88;88.73
53546;BME280;39432;51.902;10.844;2023-03-23T11:44:40;98440.78;;;14.66;89.24
53546;BME280;39432;51.902;10.844;2023-03-23T11:47:22;98424.88;;;14.85;88.31
53546;BME280;39432;51.902;10.844;2023-03-23T11:49:57;98413.78;;;14.68;89.66
53546;BME280;39432;51.902;10.844;2023-03-23T11:52:36;98421.91;;;14.73;90.03
53546;BME280;39432;51.902;10.844;2023-03-23T11:55:12;98432.41;;;14.71;89.34
53546;BME280;39432;51.902;10.844;2023-03-23T11:57:44;98440.72;;;14.80;90.89
53546;BME280;39432;51.902;10.844;2023-03-23T12:00:15;98445.16;;;14.89;90.80
53546;BME280;39432;51.902;10.844;2023-03-23T12:02:54;98438.56;;;15.30;89.93
53546;BME280;39432;51.902;10.844;2023-03-23T12:05:49;98417.22;;;15.44;86.74
53546;BME280;39432;51.902;10.844;2023-03-23T12:08:30;98429.00;;;15.67;86.16
53546;BME280;39432;51.902;10.844;2023-03-23T12:11:08;98433.53;;;15.32;83.65
53546;BME280;39432;51.902;10.844;2023-03-23T12:13:54;98433.25;;;15.34;84.91
53546;BME280;39432;51.902;10.844;2023-03-23T12:16:36;98444.88;;;15.31;84.64
53546;BME280;39432;51.902;10.844;2023-03-23T12:19:17;98439.38;;;15.31;84.03
53546;BME280;39432;51.902;10.844;2023-03-23T12:21:58;98424.97;;;15.73;82.89
53546;BME280;39432;51.902;10.844;2023-03-23T12:24:43;98436.59;;;15.62;81.64
53546;BME280;39432;51.902;10.844;2023-03-23T12:27:20;98429.66;;;15.73;78.88
53546;BME280;39432;51.902;10.844;2023-03-23T12:30:14;98426.31;;;15.53;79.51
53546;BME280;39432;51.902;10.844;2023-03-23T12:33:07;98421.53;;;15.68;76.42
53546;BME280;39432;51.902;10.844;2023-03-23T12:35:50;98415.13;;;16.16;78.97
53546;BME280;39432;51.902;10.844;2023-03-23T12:38:38;98437.00;;;15.77;78.95
53546;BME280;39432;51.902;10.844;2023-03-23T12:41:16;98422.22;;;15.82;80.21
53546;BME280;39432;51.902;10.844;2023-03-23T12:43:51;98426.91;;;15.73;77.12
53546;BME280;39432;51.902;10.844;2023-03-23T12:46:47;98425.44;;;15.75;77.11
53546;BME280;39432;51.902;10.844;2023-03-23T12:49:22;98418.34;;;15.92;76.24
53546;BME280;39432;51.902;10.844;2023-03-23T12:51:59;98418.47;;;15.69;74.70
53546;BME280;39432;51.902;10.844;2023-03-23T12:54:34;98411.50;;;15.72;74.56
53546;BME280;39432;51.902;10.844;2023-03-23T12:57:10;98424.78;;;15.70;76.50
53546;BME280;39432;51.902;10.844;2023-03-23T12:59:43;98430.03;;;15.49;77.48
53546;BME280;39432;51.902;10.844;2023-03-23T13:02:21;98431.09;;;15.70;77.07
53546;BME280;39432;51.902;10.844;2023-03-23T13:04:55;98428.13;;;15.58;78.41
53546;BME280;39432;51.902;10.844;2023-03-23T13:07:33;98420.09;;;15.88;79.01
53546;BME280;39432;51.902;10.844;2023-03-23T13:10:15;98423.69;;;15.97;77.83
53546;BME280;39432;51.902;10.844;2023-03-23T13:12:48;98413.47;;;15.97;79.30
53546;BME280;39432;51.902;10.844;2023-03-23T13:15:27;98421.59;;;16.02;79.83
53546;BME280;39432;51.902;10.844;2023-03-23T13:18:07;98407.34;;;16.18;78.74
53546;BME280;39432;51.902;10.844;2023-03-23T13:20:48;98409.94;;;16.05;76.62
53546;BME280;39432;51.902;10.844;2023-03-23T13:23:26;98404.06;;;16.42;78.56
53546;BME280;39432;51.902;10.844;2023-03-23T13:26:00;98410.72;;;15.97;78.32
53546;BME280;39432;51.902;10.844;2023-03-23T13:28:32;98416.41;;;15.84;77.39
53546;BME280;39432;51.902;10.844;2023-03-23T13:31:12;98418.63;;;15.73;76.42
53546;BME280;39432;51.902;10.844;2023-03-23T13:33:46;98414.41;;;15.75;77.13
53546;BME280;39432;51.902;10.844;2023-03-23T13:36:27;98434.13;;;16.26;78.18
53546;BME280;39432;51.902;10.844;2023-03-23T13:39:03;98437.84;;;16.30;77.19